Time;durP1;ratioP1;P1;durP2;ratioP2;P2;SDS_P1;SDS_P2;PMS_P1;PMS_P2;Temp;Humidity;BMP_temperature;BMP_pressure;BME280_temperature;BME280_humidity;BME280_pressure;Samples;Min_cycle;Max_cycle;Signal;HPM_P1;HPM_P2
2021/04/02 00:01:07;;;;;;;25.98;14.98;;;;;;;12.51;64.59;98477.59;3552425;27;20122;-55
2021/04/02 00:02:49;;;;;;;26.48;14.00;;;;;;;12.46;65.22;98479.38;3550482;27;20046;-55
2021/04/02 00:04:30;;;;;;;32.67;15.50;;;;;;;12.36;65.81;98476.06;3553828;27;20053;-54
2021/04/02 00:06:12;;;;;;;26.00;14.88;;;;;;;12.28;65.55;98482.25;3551358;27;20185;-55
2021/04/02 00:07:53;;;;;;;21.08;12.13;;;;;;;12.22;65.81;98493.53;3553318;27;20514;-55
2021/04/02 00:09:34;;;;;;;25.70;14.27;;;;;;;12.15;66.03;98482.38;3553202;27;20046;-53
2021/04/02 00:11:16;;;;;;;27.85;13.32;;;;;;;12.09;65.55;98485.03;3551488;27;20047;-56
2021/04/02 00:12:58;;;;;;;27.17;15.07;;;;;;;12.03;66.36;98472.13;3552378;27;20050;-56
2021/04/02 00:14:39;;;;;;;27.60;14.90;;;;;;;12.02;66.90;98477.34;3546313;27;20047;-55
2021/04/02 00:16:20;;;;;;;22.40;14.70;;;;;;;11.98;67.36;98459.19;3553542;27;20050;-56
2021/04/02 00:18:03;;;;;;;21.45;14.25;;;;;;;11.94;66.59;98454.91;3550363;27;20047;-57
2021/04/02 00:19:45;;;;;;;19.53;11.83;;;;;;;11.92;66.41;98473.97;3553188;27;20423;-58
2021/04/02 00:21:26;;;;;;;20.58;12.07;;;;;;;11.89;67.41;98459.28;3552868;27;20050;-58
2021/04/02 00:23:08;;;;;;;29.38;15.85;;;;;;;11.87;68.28;98461.06;3553057;27;20111;-59
2021/04/02 00:24:50;;;;;;;26.35;14.50;;;;;;;11.83;69.20;98451.53;3553361;27;20494;-59
2021/04/02 00:26:31;;;;;;;24.25;13.95;;;;;;;11.76;68.91;98460.28;3550067;27;20046;-57
2021/04/02 00:28:13;;;;;;;24.20;13.80;;;;;;;11.71;69.50;98449.09;3553792;27;20046;-57
2021/04/02 00:29:54;;;;;;;27.65;15.38;;;;;;;11.67;69.13;98456.06;3550027;27;20046;-59
2021/04/02 00:31:36;;;;;;;28.15;15.13;;;;;;;11.63;68.61;98446.56;3552952;27;20503;-59
2021/04/02 00:33:19;;;;;;;28.35;15.82;;;;;;;11.59;70.00;98437.09;3550639;27;20078;-59
2021/04/02 00:35:00;;;;;;;31.45;16.77;;;;;;;11.55;70.77;98430.19;3550534;27;20043;-58
2021/04/02 00:36:41;;;;;;;27.77;16.27;;;;;;;11.49;70.16;98432.88;3553673;27;20095;-58
2021/04/02 00:38:23;;;;;;;32.35;17.73;;;;;;;11.44;70.32;98422.53;3549908;27;20053;-57
2021/04/02 00:40:10;;;;;;;37.45;18.92;;;;;;;11.40;69.91;98418.25;3553221;27;20054;-57
2021/04/02 00:41:51;;;;;;;32.13;18.27;;;;;;;11.37;69.78;98419.13;3549638;27;20419;-57
2021/04/02 00:43:35;;;;;;;30.80;17.88;;;;;;;11.35;69.94;98420.88;3552753;27;20042;-58
2021/04/02 00:45:18;;;;;;;35.25;17.23;;;;;;;11.33;70.14;98419.19;3551078;27;20570;-57
2021/04/02 00:47:00;;;;;;;26.30;15.80;;;;;;;11.30;70.62;98404.44;3550932;27;20557;-57
2021/04/02 00:48:42;;;;;;;27.45;15.43;;;;;;;11.28;69.57;98414.00;3552093;27;20286;-57
2021/04/02 00:50:28;;;;;;;27.15;15.80;;;;;;;11.26;69.82;98400.16;3551964;27;20043;-57
2021/04/02 00:52:09;;;;;;;27.42;16.08;;;;;;;11.25;69.29;98403.63;3553539;27;20058;-57
2021/04/02 00:53:51;;;;;;;28.70;15.77;;;;;;;11.24;69.48;98404.53;3549866;27;20094;-57
2021/04/02 00:55:32;;;;;;;28.77;15.13;;;;;;;11.24;69.25;98396.72;3550979;27;20050;-56
2021/04/02 00:57:14;;;;;;;30.15;16.05;;;;;;;11.23;69.43;98402.78;3552884;27;20069;-57
2021/04/02 00:58:56;;;;;;;28.85;16.35;;;;;;;11.20;69.11;98401.09;3552148;27;20042;-57
2021/04/02 01:00:37;;;;;;;27.58;15.80;;;;;;;11.21;68.50;98381.19;3553367;27;20209;-57
2021/04/02 01:02:19;;;;;;;29.90;16.25;;;;;;;11.20;69.49;98382.03;3551769;27;20069;-57
2021/04/02 01:04:00;;;;;;;35.58;18.02;;;;;;;11.17;69.25;98375.16;3553028;27;20455;-56
2021/04/02 01:05:44;;;;;;;29.27;17.55;;;;;;;11.14;68.52;98372.59;3550847;27;20047;-56
2021/04/02 01:07:26;;;;;;;31.08;17.90;;;;;;;11.13;68.00;98382.97;3551337;27;20053;-57
2021/04/02 01:09:07;;;;;;;27.52;16.35;;;;;;;11.12;69.01;98376.09;3552243;27;20149;-57
2021/04/02 01:10:52;;;;;;;29.38;17.65;;;;;;;11.09;68.83;98379.56;3550598;27;20038;-49
2021/04/02 01:12:33;;;;;;;28.05;15.90;;;;;;;11.05;68.35;98376.13;3553061;27;20047;-49
2021/04/02 01:14:15;;;;;;;30.92;16.77;;;;;;;11.03;68.95;98384.81;3547978;27;20046;-50
2021/04/02 01:16:01;;;;;;;33.78;16.45;;;;;;;10.99;68.67;98389.16;3553275;27;20050;-56
2021/04/02 01:17:46;;;;;;;32.78;17.40;;;;;;;10.96;68.52;98375.38;3548956;27;20051;-57
2021/04/02 01:19:32;;;;;;;30.88;16.95;;;;;;;10.94;69.28;98375.38;3551392;27;20047;-56
2021/04/02 01:21:18;;;;;;;32.08;18.10;;;;;;;10.89;69.44;98384.06;3551668;27;20061;-57
2021/04/02 01:23:07;;;;;;;34.45;16.00;;;;;;;10.84;69.01;98382.34;3549479;27;20115;-56
2021/04/02 01:25:08;;;;;;;33.95;16.80;;;;;;;10.81;69.36;98379.81;3553031;27;20047;-56
2021/04/02 01:27:02;;;;;;;27.80;15.52;;;;;;;10.78;69.18;98382.44;3550523;27;20099;-56
2021/04/02 01:29:11;;;;;;;29.23;16.20;;;;;;;10.75;69.70;98376.41;3549761;27;20043;-52
2021/04/02 01:30:55;;;;;;;26.77;16.27;;;;;;;10.72;70.09;98376.41;3552193;27;20051;-49
2021/04/02 01:32:39;;;;;;;26.45;16.38;;;;;;;10.70;69.96;98370.38;3550062;27;20054;-52
2021/04/02 01:34:22;;;;;;;;;;;;;;;10.67;70.04;98366.94;3551448;27;20047;-48
2021/04/02 01:36:04;;;;;;;28.23;16.15;;;;;;;10.65;69.60;98360.94;3550107;27;19962;-49
2021/04/02 01:37:51;;;;;;;30.70;16.67;;;;;;;10.65;70.47;98360.94;3549512;27;20054;-55
2021/04/02 01:39:36;;;;;;;29.02;15.75;;;;;;;10.64;70.49;98350.56;3553021;27;20050;-55
2021/04/02 01:41:22;;;;;;;26.58;15.65;;;;;;;10.62;69.68;98345.38;3549054;27;20055;-55
2021/04/02 01:43:09;;;;;;;33.33;16.92;;;;;;;10.60;70.86;98351.44;3550593;27;20057;-55
2021/04/02 01:44:52;;;;;;;30.80;16.40;;;;;;;10.58;71.02;98343.69;3552547;27;20103;-52
2021/04/02 01:46:34;;;;;;;;;;;;;;;10.55;70.92;98343.72;3549999;27;20138;-54
2021/04/02 01:48:16;;;;;;;31.98;16.63;;;;;;;10.51;71.22;98346.31;3552714;27;19959;-54
2021/04/02 01:49:59;;;;;;;27.17;16.92;;;;;;;10.49;70.72;98342.03;3549244;27;20087;-48
2021/04/02 01:51:42;;;;;;;33.72;17.17;;;;;;;10.47;71.30;98342.91;3552001;27;20517;-48
2021/04/02 01:53:27;;;;;;;27.90;15.48;;;;;;;10.45;71.09;98339.47;3551960;27;20068;-49
2021/04/02 01:55:11;;;;;;;31.42;16.85;;;;;;;10.45;71.22;98334.28;3550587;27;20058;-50
2021/04/02 01:56:54;;;;;;;31.35;16.58;;;;;;;10.44;71.67;98337.72;3550591;27;20047;-48
2021/04/02 01:58:38;;;;;;;27.55;16.27;;;;;;;10.43;71.16;98336.88;3549083;27;20043;-50
2021/04/02 02:00:25;;;;;;;34.08;16.42;;;;;;;10.44;71.18;98342.91;3552907;27;20096;-48
2021/04/02 02:02:06;;;;;;;30.88;15.52;;;;;;;10.43;71.58;98338.63;3549135;27;20074;-49
2021/04/02 02:03:50;;;;;;;29.40;17.05;;;;;;;10.43;71.93;98338.63;3550072;27;20057;-48
2021/04/02 02:05:33;;;;;;;;;;;;;;;10.40;71.92;98338.63;3553838;27;20050;-52
2021/04/02 02:07:16;;;;;;;30.10;16.67;;;;;;;10.38;72.18;98330.84;3550057;27;19931;-54
2021/04/02 02:08:59;;;;;;;26.20;15.63;;;;;;;10.35;72.72;98325.69;3552443;27;20054;-54
2021/04/02 02:10:43;;;;;;;29.30;16.58;;;;;;;10.33;72.65;98332.63;3548925;27;20046;-53
2021/04/02 02:12:25;;;;;;;28.77;16.52;;;;;;;10.28;72.80;98324.00;3550682;27;20392;-52
2021/04/02 02:14:11;;;;;;;29.85;16.90;;;;;;;10.25;72.53;98319.72;3551065;27;20047;-51
2021/04/02 02:15:56;;;;;;;28.40;16.45;;;;;;;10.22;72.67;98327.50;3551211;27;20046;-55
2021/04/02 02:17:39;;;;;;;29.92;16.25;;;;;;;10.20;72.63;98326.66;3552565;27;20111;-54
2021/04/02 02:19:25;;;;;;;30.80;16.42;;;;;;;10.18;72.60;98327.56;3548835;27;20043;-52
2021/04/02 02:21:09;;;;;;;29.67;16.48;;;;;;;10.15;72.80;98323.25;3551870;27;20050;-53
2021/04/02 02:22:53;;;;;;;28.95;17.27;;;;;;;10.13;72.74;98325.00;3549297;27;20427;-50
2021/04/02 02:24:35;;;;;;;28.77;18.15;;;;;;;10.11;73.02;98325.00;3551227;27;20067;-52
2021/04/02 02:26:17;;;;;;;34.10;18.17;;;;;;;10.10;72.73;98319.81;3551095;27;20055;-51
2021/04/02 02:28:17;;;;;;;29.90;17.55;;;;;;;10.07;72.92;98318.13;3548711;27;20070;-53
2021/04/02 02:29:59;;;;;;;24.85;15.68;;;;;;;10.04;73.02;98315.53;3551754;27;20150;-52
2021/04/02 02:31:42;;;;;;;27.27;15.48;;;;;;;10.03;72.86;98319.00;3549405;27;20046;-52
2021/04/02 02:33:24;;;;;;;31.50;16.42;;;;;;;10.03;72.80;98324.16;3551140;27;20106;-50
2021/04/02 02:35:08;;;;;;;26.75;15.57;;;;;;;10.04;72.68;98325.06;3550869;27;20507;-50
2021/04/02 02:36:49;;;;;;;;;;;;;;;10.03;72.91;98323.31;3549175;27;20051;-54
2021/04/02 02:38:31;;;;;;;26.77;15.60;;;;;;;10.03;72.74;98318.13;3552533;27;19930;-52
2021/04/02 02:40:16;;;;;;;25.63;15.25;;;;;;;10.02;72.84;98317.28;3548855;27;20072;-52
2021/04/02 02:42:01;;;;;;;25.90;15.27;;;;;;;10.01;72.59;98307.78;3551295;27;20042;-51
2021/04/02 02:43:47;;;;;;;27.58;16.25;;;;;;;10.01;72.38;98312.97;3550332;27;20051;-51
2021/04/02 02:45:29;;;;;;;26.33;14.63;;;;;;;10.01;72.66;98312.09;3549818;27;20047;-52
2021/04/02 02:47:11;;;;;;;23.23;14.73;;;;;;;10.02;71.17;98317.28;3551557;27;20055;-50
2021/04/02 02:48:59;;;;;;;22.65;14.40;;;;;;;10.02;71.49;98316.44;3548403;27;20049;-53
2021/04/02 02:50:45;;;;;;;30.73;15.43;;;;;;;10.04;71.29;98317.28;3552471;27;20057;-54
2021/04/02 02:52:27;;;;;;;26.23;15.32;;;;;;;10.02;72.31;98319.03;3548445;27;20049;-54
2021/04/02 02:54:13;;;;;;;24.73;13.75;;;;;;;9.99;71.31;98317.28;3549284;27;20744;-53
2021/04/02 02:55:55;;;;;;;26.77;15.98;;;;;;;9.97;71.81;98326.81;3550813;27;20515;-53
2021/04/02 02:57:37;;;;;;;27.15;15.88;;;;;;;9.94;72.12;98325.97;3554287;27;20400;-50
2021/04/02 02:59:22;;;;;;;21.88;12.75;;;;;;;9.89;71.36;98332.03;3565966;27;20057;-54
2021/04/02 03:01:06;;;;;;;30.20;16.50;;;;;;;9.88;71.67;98322.53;3549302;27;20047;-52
2021/04/02 03:02:54;;;;;;;23.73;14.63;;;;;;;9.86;71.57;98320.84;3549990;27;20427;-50
2021/04/02 03:04:39;;;;;;;27.17;16.60;;;;;;;9.83;71.76;98321.69;3550785;27;20574;-52
2021/04/02 03:06:22;;;;;;;27.58;16.13;;;;;;;9.80;72.39;98326.88;3548404;27;20051;-49
2021/04/02 03:08:07;;;;;;;29.55;14.55;;;;;;;9.78;72.61;98331.22;3552158;27;20046;-50
2021/04/02 03:09:50;;;;;;;29.98;17.27;;;;;;;9.76;71.97;98329.53;3548708;27;20100;-53
2021/04/02 03:11:32;;;;;;;28.92;15.85;;;;;;;9.74;71.51;98334.69;3549981;27;20047;-50
2021/04/02 03:13:17;;;;;;;28.58;16.48;;;;;;;9.72;71.68;98337.28;3548964;27;20053;-49
2021/04/02 03:15:00;;;;;;;26.58;14.27;;;;;;;9.70;71.32;98333.84;3548721;27;20051;-50
2021/04/02 03:16:44;;;;;;;24.08;14.32;;;;;;;9.67;71.22;98318.31;3554496;27;20046;-52
2021/04/02 03:18:29;;;;;;;31.13;17.67;;;;;;;9.70;72.01;98327.78;3554532;27;20107;-51
2021/04/02 03:20:12;;;;;;;31.92;17.13;;;;;;;9.69;72.76;98320.91;3552740;27;20049;-50
2021/04/02 03:21:57;;;;;;;29.45;15.85;;;;;;;9.66;72.46;98318.34;3552862;27;20050;-49
2021/04/02 03:23:42;;;;;;;27.27;16.83;;;;;;;9.64;72.60;98315.75;3550884;27;20043;-51
2021/04/02 03:25:26;;;;;;;29.40;16.42;;;;;;;9.61;72.34;98315.78;3554487;27;20046;-52
2021/04/02 03:27:09;;;;;;;30.75;17.38;;;;;;;9.59;71.83;98325.25;3543721;27;20479;-50
2021/04/02 03:28:51;;;;;;;33.38;17.52;;;;;;;9.58;72.01;98333.03;3545982;27;20073;-50
2021/04/02 03:30:33;;;;;;;34.13;17.92;;;;;;;9.57;72.16;98336.50;3540326;28;20047;-49
2021/04/02 03:32:15;;;;;;;29.48;18.45;;;;;;;9.54;72.23;98329.59;3548095;27;20046;-53
2021/04/02 03:33:58;;;;;;;29.40;18.17;;;;;;;9.53;72.31;98323.56;3554434;27;20557;-49
2021/04/02 03:35:40;;;;;;;31.33;18.38;;;;;;;9.49;72.56;98324.44;3551173;27;20049;-48
2021/04/02 03:37:23;;;;;;;36.33;19.15;;;;;;;9.48;71.88;98327.91;3551787;27;20507;-52
2021/04/02 03:39:09;;;;;;;30.92;17.92;;;;;;;9.47;72.29;98327.91;3552997;27;20423;-48
2021/04/02 03:40:53;;;;;;;31.45;17.70;;;;;;;9.45;72.33;98314.97;3550792;27;20053;-48
2021/04/02 03:42:35;;;;;;;30.20;18.27;;;;;;;9.43;72.69;98313.25;3554307;27;20050;-47
2021/04/02 03:44:17;;;;;;;35.75;19.15;;;;;;;9.42;72.35;98320.16;3550679;27;20046;-49
2021/04/02 03:46:01;;;;;;;27.15;17.58;;;;;;;9.42;72.83;98327.00;3553345;27;20431;-49
2021/04/02 03:47:44;;;;;;;43.92;21.52;;;;;;;9.40;72.70;98318.41;3551564;27;20057;-49
2021/04/02 03:49:30;;;;;;;69.32;29.52;;;;;;;9.38;72.68;98323.56;3550631;27;20046;-49
2021/04/02 03:51:15;;;;;;;82.85;34.45;;;;;;;9.37;71.92;98323.59;3553120;27;20089;-50
2021/04/02 03:53:07;;;;;;;63.20;28.10;;;;;;;9.39;71.50;98321.88;3551828;27;20046;-49
2021/04/02 03:54:51;;;;;;;50.88;24.23;;;;;;;9.38;71.26;98318.41;3553777;27;20506;-49
2021/04/02 03:56:36;;;;;;;36.45;19.48;;;;;;;9.38;70.93;98310.63;3551037;27;20047;-49
2021/04/02 03:58:20;;;;;;;37.35;19.98;;;;;;;9.40;71.52;98310.63;3550460;27;20058;-51
2021/04/02 04:00:08;;;;;;;37.53;19.63;;;;;;;9.39;71.68;98307.19;3554118;27;20141;-50
2021/04/02 04:01:52;;;;;;;32.67;19.58;;;;;;;9.38;71.32;98299.44;3552572;27;20074;-50
2021/04/02 04:03:35;;;;;;;31.40;18.25;;;;;;;9.39;70.69;98298.56;3553406;27;20057;-49
2021/04/02 04:05:18;;;;;;;34.80;19.05;;;;;;;9.38;71.57;98295.09;3553620;27;20049;-49
2021/04/02 04:07:04;;;;;;;29.73;18.02;;;;;;;9.39;70.93;98303.75;3550373;27;20043;-49
2021/04/02 04:08:47;;;;;;;29.77;16.80;;;;;;;9.39;70.23;98306.34;3553212;27;20070;-52
2021/04/02 04:10:30;;;;;;;32.88;19.23;;;;;;;9.40;69.87;98313.22;3552588;27;20046;-49
2021/04/02 04:12:14;;;;;;;32.97;19.60;;;;;;;9.42;70.23;98317.56;3553648;27;20046;-49
2021/04/02 04:13:56;;;;;;;36.47;19.33;;;;;;;9.42;70.09;98314.06;3548609;27;20047;-52
2021/04/02 04:15:40;;;;;;;38.97;19.15;;;;;;;9.42;69.95;98312.41;3551622;27;20491;-49
2021/04/02 04:17:23;;;;;;;29.85;17.95;;;;;;;9.42;70.22;98312.41;3553638;27;20055;-48
2021/04/02 04:19:05;;;;;;;20.15;11.65;;;;;;;9.41;70.13;98302.00;3550183;27;20062;-48
2021/04/02 04:20:48;;;;;;;29.00;17.30;;;;;;;9.41;70.18;98297.69;3553773;27;20512;-49
2021/04/02 04:22:30;;;;;;;29.30;16.25;;;;;;;9.41;70.27;98296.84;3550024;27;20162;-49
2021/04/02 04:24:18;;;;;;;21.42;13.45;;;;;;;9.40;69.71;98301.16;3553225;27;20058;-49
2021/04/02 04:26:01;;;;;;;31.77;16.00;;;;;;;9.40;70.07;98306.34;3551029;27;20561;-50
2021/04/02 04:27:44;;;;;;;34.78;18.98;;;;;;;9.41;70.22;98299.44;3551611;27;20050;-49
2021/04/02 04:29:34;;;;;;;37.53;17.17;;;;;;;9.40;70.24;98300.28;3552209;27;20056;-48
2021/04/02 04:31:18;;;;;;;32.67;18.83;;;;;;;9.38;70.51;98295.09;3550003;27;20133;-48
2021/04/02 04:33:06;;;;;;;29.27;17.70;;;;;;;9.37;70.44;98293.41;3552000;27;20050;-49
2021/04/02 04:34:49;;;;;;;32.70;17.63;;;;;;;9.37;70.16;98288.22;3551302;27;20472;-50
2021/04/02 04:36:33;;;;;;;32.42;19.63;;;;;;;9.37;70.58;98280.47;3550025;27;20047;-50
2021/04/02 04:38:16;;;;;;;35.47;19.45;;;;;;;9.37;70.75;98288.22;3553216;27;20047;-51
2021/04/02 04:39:59;;;;;;;41.17;21.52;;;;;;;9.36;70.79;98286.50;3552154;27;20049;-50
2021/04/02 04:41:43;;;;;;;35.38;20.67;;;;;;;9.37;70.54;98283.06;3553624;27;20051;-50
2021/04/02 04:43:25;;;;;;;37.95;19.88;;;;;;;9.37;71.13;98285.63;3552754;27;20050;-48
2021/04/02 04:45:09;;;;;;;35.33;20.27;;;;;;;9.38;70.83;98282.16;3550866;27;20047;-49
2021/04/02 04:46:50;;;;;;;36.50;19.75;;;;;;;9.39;70.42;98283.06;3552837;27;20043;-48
2021/04/02 04:48:32;;;;;;;38.75;19.63;;;;;;;9.40;70.50;98279.56;3552068;27;20107;-48
2021/04/02 04:50:15;;;;;;;34.38;19.92;;;;;;;9.40;70.38;98287.34;3553300;27;20043;-48
2021/04/02 04:51:59;;;;;;;35.70;19.55;;;;;;;9.41;70.00;98284.75;3549602;27;20397;-49
2021/04/02 04:53:41;;;;;;;35.38;19.95;;;;;;;9.41;70.15;98289.94;3552820;27;20050;-51
2021/04/02 04:55:23;;;;;;;40.15;21.90;;;;;;;9.42;70.69;98288.19;3550194;27;20546;-49
2021/04/02 04:57:06;;;;;;;44.13;21.45;;;;;;;9.40;71.04;98297.69;3551996;27;20043;-48
2021/04/02 04:58:51;;;;;;;31.77;18.50;;;;;;;9.40;70.62;98301.16;3552340;27;20054;-50
2021/04/02 05:00:33;;;;;;;28.13;16.30;;;;;;;9.40;70.43;98298.56;3552181;27;20122;-48
2021/04/02 05:02:16;;;;;;;38.47;20.02;;;;;;;9.40;70.66;98315.81;3553221;27;20082;-51
2021/04/02 05:03:58;;;;;;;28.88;16.73;;;;;;;9.40;70.39;98308.03;3549472;27;20046;-49
2021/04/02 05:05:42;;;;;;;32.65;18.60;;;;;;;9.38;70.39;98315.81;3552126;27;20039;-49
2021/04/02 05:07:27;;;;;;;29.30;17.75;;;;;;;9.38;70.56;98320.13;3550651;27;20074;-49
2021/04/02 05:09:10;;;;;;;41.72;23.60;;;;;;;9.38;71.15;98315.81;3550346;27;20046;-50
2021/04/02 05:10:53;;;;;;;50.00;27.23;;;;;;;9.39;71.46;98306.34;3552950;27;20054;-49
2021/04/02 05:12:35;;;;;;;53.50;27.90;;;;;;;9.39;71.60;98291.66;3550836;27;20067;-49
2021/04/02 05:14:19;;;;;;;48.90;26.15;;;;;;;9.39;71.53;98296.00;3551743;27;20144;-50
2021/04/02 05:16:01;;;;;;;41.75;23.67;;;;;;;9.38;71.37;98305.47;3551062;27;20089;-49
2021/04/02 05:17:44;;;;;;;38.83;21.90;;;;;;;9.38;71.47;98304.59;3551010;27;20042;-50
2021/04/02 05:19:26;;;;;;;27.23;15.68;;;;;;;9.38;71.17;98309.78;3553055;27;20077;-49
2021/04/02 05:21:08;;;;;;;40.90;22.10;;;;;;;9.38;72.56;98308.03;3550221;27;20047;-50
2021/04/02 05:22:50;;;;;;;46.78;22.35;;;;;;;9.38;72.63;98307.19;3553204;27;20078;-48
2021/04/02 05:24:32;;;;;;;31.35;19.33;;;;;;;9.37;71.94;98297.72;3549593;27;20046;-49
2021/04/02 05:26:14;;;;;;;36.30;20.88;;;;;;;9.37;72.30;98305.50;3552859;27;20085;-53
2021/04/02 05:27:56;;;;;;;32.15;19.60;;;;;;;9.37;72.50;98303.75;3549938;27;20051;-49
2021/04/02 05:29:37;;;;;;;35.17;19.80;;;;;;;9.37;72.49;98308.09;3550745;27;20498;-49
2021/04/02 05:31:18;;;;;;;33.17;18.67;;;;;;;9.37;73.37;98301.16;3551485;27;20095;-50
2021/04/02 05:33:07;;;;;;;36.45;20.55;;;;;;;9.38;73.38;98305.47;3549254;27;20054;-52
2021/04/02 05:34:48;;;;;;;33.00;19.30;;;;;;;9.37;73.49;98301.16;3552745;27;20427;-53
2021/04/02 05:36:30;;;;;;;37.35;20.15;;;;;;;9.39;73.72;98312.38;3549232;27;20054;-46
2021/04/02 05:38:11;;;;;;;36.15;19.45;;;;;;;9.39;73.54;98296.84;3551338;27;20075;-48
2021/04/02 05:40:14;;;;;;;60.65;30.83;;;;;;;9.38;75.07;98291.66;3550637;27;20046;-50
2021/04/02 05:42:01;;;;;;;54.40;27.40;;;;;;;9.37;76.75;98271.84;3549088;27;20054;-52
2021/04/02 05:43:47;;;;;;;39.30;21.75;;;;;;;9.34;76.67;98262.34;3552817;27;20054;-52
2021/04/02 05:45:30;;;;;;;36.20;19.88;;;;;;;9.31;78.05;98249.41;3551449;27;20565;-48
2021/04/02 05:47:14;;;;;;;36.45;21.35;;;;;;;9.31;79.04;98242.53;3551557;27;20050;-50
2021/04/02 05:48:59;;;;;;;38.92;22.00;;;;;;;9.26;79.90;98218.41;3549906;27;20427;-50
2021/04/02 05:50:41;;;;;;;40.72;21.48;;;;;;;9.22;80.77;98211.50;3549288;27;20046;-50
2021/04/02 05:52:24;;;;;;;38.35;21.38;;;;;;;9.17;81.60;98182.22;3552499;27;20051;-51
2021/04/02 05:54:10;;;;;;;38.97;23.00;;;;;;;9.12;82.11;98160.69;3549470;27;20044;-48
2021/04/02 05:55:52;;;;;;;37.47;20.17;;;;;;;9.09;82.73;98153.78;3552289;27;20050;-51
2021/04/02 05:57:34;;;;;;;44.97;23.73;;;;;;;9.07;83.58;98158.13;3549495;27;20073;-52
2021/04/02 05:59:16;;;;;;;39.70;23.10;;;;;;;9.07;84.22;98168.47;3551793;27;20050;-49
2021/04/02 06:00:58;;;;;;;37.03;21.08;;;;;;;9.09;84.77;98191.75;3551886;27;20050;-57
2021/04/02 06:02:40;;;;;;;34.78;21.08;;;;;;;9.11;84.90;98203.78;3551492;27;20136;-58
2021/04/02 06:04:22;;;;;;;37.72;22.13;;;;;;;9.15;84.99;98207.22;3552479;27;20137;-58
2021/04/02 06:06:04;;;;;;;42.00;22.58;;;;;;;9.19;85.54;98211.53;3548701;27;20050;-58
2021/04/02 06:07:46;;;;;;;39.20;22.23;;;;;;;9.23;85.47;98212.38;3552006;27;20495;-58
2021/04/02 06:09:28;;;;;;;36.63;21.60;;;;;;;9.27;86.17;98233.03;3549870;27;20054;-58
2021/04/02 06:11:10;;;;;;;37.63;22.83;;;;;;;9.33;86.12;98253.75;3550139;27;20054;-58
2021/04/02 06:12:51;;;;;;;31.73;19.38;;;;;;;9.38;85.10;98258.03;3551092;27;20058;-58
2021/04/02 06:14:33;;;;;;;37.92;22.85;;;;;;;9.45;85.09;98255.44;3549704;27;20099;-58
2021/04/02 06:16:14;;;;;;;37.30;22.25;;;;;;;9.50;85.78;98229.53;3552536;27;20059;-54
2021/04/02 06:18:00;;;;;;;37.33;21.80;;;;;;;9.55;86.10;98220.00;3548440;27;20093;-50
2021/04/02 06:19:42;;;;;;;38.25;22.88;;;;;;;9.59;86.14;98211.34;3551917;27;20107;-53
2021/04/02 06:21:26;;;;;;;36.40;22.02;;;;;;;9.63;86.55;98222.53;3549379;27;20563;-51
2021/04/02 06:23:14;;;;;;;38.92;23.00;;;;;;;9.64;87.02;98237.22;3551461;27;20064;-50
2021/04/02 06:25:03;;;;;;;43.13;23.80;;;;;;;9.63;87.48;98257.09;3552087;27;20046;-53
2021/04/02 06:26:58;;;;;;;46.78;27.00;;;;;;;9.61;87.08;98283.84;3548777;27;20058;-56
2021/04/02 06:28:41;;;;;;;39.90;24.40;;;;;;;9.54;86.67;98286.47;3551754;27;20083;-59
2021/04/02 06:30:23;;;;;;;48.30;29.25;;;;;;;9.50;86.64;98294.25;3552085;27;20047;-57
2021/04/02 06:32:07;;;;;;;45.75;26.83;;;;;;;9.40;86.15;98301.16;3549842;27;20070;-57
2021/04/02 06:33:53;;;;;;;50.20;27.48;;;;;;;9.33;86.14;98307.22;3553205;27;20043;-58
2021/04/02 06:35:37;;;;;;;47.35;26.20;;;;;;;9.26;86.20;98314.16;3548816;27;20074;-59
2021/04/02 06:37:20;;;;;;;40.03;22.15;;;;;;;9.20;86.01;98319.31;3552231;27;20050;-59
2021/04/02 06:39:04;;;;;;;50.15;30.25;;;;;;;9.16;87.01;98325.38;3551191;27;20038;-59
2021/04/02 06:40:46;;;;;;;53.17;30.25;;;;;;;9.11;87.31;98325.38;3550195;27;20049;-56
2021/04/02 06:42:28;;;;;;;51.47;30.08;;;;;;;9.10;87.55;98331.44;3550852;27;20043;-57
2021/04/02 06:44:10;;;;;;;58.83;31.63;;;;;;;9.10;88.54;98327.97;3548887;27;20070;-57
2021/04/02 06:45:51;;;;;;;51.03;29.45;;;;;;;9.11;88.04;98330.56;3552383;27;20047;-57
2021/04/02 06:47:34;;;;;;;65.85;32.67;;;;;;;9.11;88.19;98333.13;3549712;27;20056;-57
2021/04/02 06:49:18;;;;;;;51.58;27.52;;;;;;;9.11;87.98;98340.91;3551131;27;20054;-57
2021/04/02 06:51:00;;;;;;;44.60;26.83;;;;;;;9.09;87.67;98340.06;3552105;27;20066;-57
2021/04/02 06:52:41;;;;;;;42.30;23.42;;;;;;;9.07;88.10;98335.75;3552444;27;20039;-53
2021/04/02 06:54:26;;;;;;;50.28;27.60;;;;;;;9.06;88.06;98344.38;3554036;27;20133;-51
2021/04/02 06:56:10;;;;;;;41.05;23.05;;;;;;;9.02;87.54;98337.50;3550766;27;20528;-51
2021/04/02 06:57:53;;;;;;;58.00;27.88;;;;;;;9.01;88.01;98341.78;3554443;27;20050;-53
2021/04/02 06:59:35;;;;;;;48.03;27.50;;;;;;;9.01;88.30;98338.34;3551489;27;20047;-50
2021/04/02 07:01:17;;;;;;;52.90;27.38;;;;;;;9.00;88.93;98337.47;3553613;27;20051;-49
2021/04/02 07:02:59;;;;;;;53.67;27.95;;;;;;;9.04;88.92;98338.34;3552135;27;20059;-53
2021/04/02 07:04:43;;;;;;;44.28;24.63;;;;;;;9.05;88.76;98340.94;3551153;27;20176;-54
2021/04/02 07:06:26;;;;;;;45.90;26.52;;;;;;;9.12;89.22;98332.28;3554394;27;20389;-50
2021/04/02 07:08:08;;;;;;;48.92;28.20;;;;;;;9.20;89.50;98344.34;3550894;27;20453;-52
2021/04/02 07:09:51;;;;;;;48.55;27.25;;;;;;;9.23;89.61;98341.75;3554118;27;20047;-52
2021/04/02 07:11:33;;;;;;;44.70;25.00;;;;;;;9.23;88.99;98352.09;3553964;27;20046;-58
2021/04/02 07:13:15;;;;;;;46.88;25.33;;;;;;;9.24;88.72;98351.22;3550832;27;20070;-57
2021/04/02 07:14:58;;;;;;;45.30;24.15;;;;;;;9.23;88.54;98350.38;3553648;27;20085;-57
2021/04/02 07:16:41;;;;;;;38.35;21.73;;;;;;;9.25;88.34;98361.56;3550616;27;20090;-57
2021/04/02 07:18:23;;;;;;;41.92;25.02;;;;;;;9.27;88.62;98357.25;3554340;27;20149;-57
2021/04/02 07:20:06;;;;;;;45.22;27.17;;;;;;;9.30;88.78;98362.44;3550812;27;20050;-57
2021/04/02 07:21:49;;;;;;;36.47;20.73;;;;;;;9.31;88.52;98358.09;3553863;27;20415;-58
2021/04/02 07:23:32;;;;;;;44.15;25.20;;;;;;;9.32;88.98;98359.84;3553025;27;20051;-57
2021/04/02 07:25:14;;;;;;;42.22;24.05;;;;;;;9.33;88.88;98356.41;3550912;27;20123;-56
2021/04/02 07:26:56;;;;;;;47.55;26.25;;;;;;;9.33;88.54;98365.00;3554147;27;20078;-56
2021/04/02 07:28:40;;;;;;;44.00;25.67;;;;;;;9.34;88.63;98361.53;3554277;27;20137;-56
2021/04/02 07:30:23;;;;;;;41.33;24.40;;;;;;;9.35;88.76;98355.53;3554248;27;20585;-55
2021/04/02 07:32:06;;;;;;;44.38;26.60;;;;;;;9.36;89.06;98358.97;3551643;27;20049;-56
2021/04/02 07:33:48;;;;;;;55.63;28.30;;;;;;;9.37;88.88;98362.44;3552122;27;20119;-56
2021/04/02 07:35:31;;;;;;;47.38;27.55;;;;;;;9.37;88.93;98360.69;3554605;27;20396;-56
2021/04/02 07:37:12;;;;;;;48.60;28.20;;;;;;;9.40;89.32;98364.97;3551186;27;20463;-55
2021/04/02 07:38:54;;;;;;;46.65;26.65;;;;;;;9.40;89.28;98370.16;3553810;27;20057;-56
2021/04/02 07:40:35;;;;;;;52.40;29.60;;;;;;;9.43;89.46;98370.19;3552699;27;20430;-54
2021/04/02 07:42:19;;;;;;;50.75;29.90;;;;;;;9.44;89.90;98375.38;3554408;27;20104;-56
2021/04/02 07:44:01;;;;;;;50.22;30.05;;;;;;;9.46;90.16;98376.22;3551837;27;20047;-55
2021/04/02 07:45:51;;;;;;;50.78;30.02;;;;;;;9.49;90.05;98381.41;3552216;27;20144;-55
2021/04/02 07:47:32;;;;;;;52.60;31.23;;;;;;;9.53;90.18;98382.25;3554388;27;20069;-54
2021/04/02 07:49:15;;;;;;;48.88;30.48;;;;;;;9.55;90.79;98385.69;3552541;27;20203;-53
2021/04/02 07:51:00;;;;;;;50.78;30.08;;;;;;;9.57;90.67;98383.94;3554214;27;20074;-55
2021/04/02 07:52:51;;;;;;;51.35;28.77;;;;;;;9.60;90.55;98391.72;3550594;27;20038;-54
2021/04/02 07:54:35;;;;;;;41.30;23.63;;;;;;;9.58;90.58;98389.97;3552644;27;20091;-53
2021/04/02 07:56:18;;;;;;;36.15;20.67;;;;;;;9.57;90.24;98398.63;3551712;27;20067;-57
2021/04/02 07:58:04;;;;;;;33.13;20.63;;;;;;;9.51;90.10;98400.38;3552510;27;20549;-54
2021/04/02 07:59:47;;;;;;;33.30;18.77;;;;;;;9.47;89.72;98406.44;3539705;28;20508;-54
2021/04/02 08:01:29;;;;;;;31.73;19.10;;;;;;;9.39;89.79;98402.97;3546110;27;20128;-54